createdAt,value
2022-08-05T00:01:27.661Z,68.30
2022-08-05T00:03:57.109Z,68.37
2022-08-05T00:06:32.484Z,68.40
2022-08-05T00:09:00.963Z,67.79
2022-08-05T00:11:34.622Z,69.60
2022-08-05T00:14:17.166Z,69.03
2022-08-05T00:16:52.369Z,68.92
2022-08-05T00:19:19.679Z,69.34
2022-08-05T00:21:48.690Z,69.63
2022-08-05T00:24:18.970Z,69.18
2022-08-05T00:26:51.740Z,70.15
2022-08-05T00:29:18.652Z,70.16
2022-08-05T00:32:10.693Z,70.55
2022-08-05T00:34:53.629Z,70.23
2022-08-05T00:37:21.747Z,70.53
2022-08-05T00:39:58.053Z,70.27
2022-08-05T00:42:33.166Z,70.68
2022-08-05T00:45:00.673Z,71.08
2022-08-05T00:47:53.009Z,71.10
2022-08-05T00:50:13.855Z,70.93
2022-08-05T00:52:41.799Z,72.39
2022-08-05T00:55:12.246Z,71.91
2022-08-05T00:57:58.356Z,71.15
2022-08-05T01:00:26.236Z,71.84
2022-08-05T01:02:53.074Z,72.11
2022-08-05T01:05:19.750Z,71.50
2022-08-05T01:08:29.927Z,72.20
2022-08-05T01:10:42.129Z,72.67
2022-08-05T01:14:16.626Z,73.09
2022-08-05T01:17:05.938Z,72.42
2022-08-05T01:20:01.764Z,73.10
2022-08-05T01:22:50.278Z,73.13
2022-08-05T01:25:54.629Z,73.53
2022-08-05T01:28:49.421Z,74.18
2022-08-05T01:31:42.545Z,74.28
2022-08-05T01:34:15.840Z,74.42
2022-08-05T01:36:47.754Z,74.35
2022-08-05T01:39:15.951Z,75.74
2022-08-05T01:42:03.395Z,74.82
2022-08-05T01:44:34.214Z,76.07
2022-08-05T01:47:02.490Z,74.92
2022-08-05T01:50:00.477Z,75.74
2022-08-05T01:52:21.271Z,75.49
2022-08-05T01:54:54.331Z,77.10
2022-08-05T01:58:13.575Z,76.33
2022-08-05T02:00:30.478Z,76.32
2022-08-05T02:03:03.627Z,77.69
2022-08-05T02:05:34.284Z,77.49
2022-08-05T02:08:04.127Z,76.91
2022-08-05T02:10:45.068Z,77.04
2022-08-05T02:13:17.730Z,78.98
2022-08-05T02:15:47.692Z,79.47
2022-08-05T02:18:31.908Z,77.03
2022-08-05T02:21:13.245Z,75.69
2022-08-05T02:23:44.601Z,75.79
2022-08-05T02:26:14.878Z,77.12
2022-08-05T02:28:46.347Z,79.50
2022-08-05T02:31:22.494Z,78.94
2022-08-05T02:33:57.541Z,79.87
2022-08-05T02:36:27.397Z,78.98
2022-08-05T02:38:56.412Z,78.98
2022-08-05T02:41:28.697Z,79.82
2022-08-05T02:44:13.110Z,80.05
2022-08-05T02:46:53.340Z,80.65
2022-08-05T02:49:36.529Z,80.49
2022-08-05T02:52:07.588Z,80.23
2022-08-05T02:54:37.244Z,81.46
2022-08-05T02:57:10.077Z,80.42
2022-08-05T02:59:55.237Z,80.94
2022-08-05T03:02:29.362Z,81.20
2022-08-05T03:04:57.484Z,82.13
2022-08-05T03:08:00.848Z,82.03
2022-08-05T03:10:15.074Z,82.92
2022-08-05T03:12:41.589Z,83.45
2022-08-05T03:15:12.341Z,83.88
2022-08-05T03:17:41.499Z,84.11
2022-08-05T03:20:09.240Z,84.34
2022-08-05T03:22:36.964Z,83.25
2022-08-05T03:25:33.937Z,83.49
2022-08-05T03:27:59.292Z,84.53
2022-08-05T03:30:33.732Z,84.72
2022-08-05T03:33:05.732Z,84.82
2022-08-05T03:35:33.692Z,84.83
2022-08-05T03:38:01.079Z,84.15
2022-08-05T03:40:31.972Z,85.54
2022-08-05T03:43:15.715Z,85.64
2022-08-05T03:45:57.682Z,85.72
2022-08-05T03:48:27.524Z,84.80
2022-08-05T03:52:35.299Z,82.96
2022-08-05T03:55:50.310Z,84.38
2022-08-05T03:56:59.879Z,84.96
2022-08-05T03:59:47.120Z,83.29
2022-08-05T04:02:37.565Z,84.25
2022-08-05T04:05:09.690Z,84.96
2022-08-05T04:07:57.192Z,85.08
2022-08-05T04:10:32.064Z,85.50
2022-08-05T04:13:04.566Z,84.47
2022-08-05T04:15:33.358Z,84.20
2022-08-05T04:18:06.723Z,84.41
2022-08-05T04:20:33.994Z,83.23
2022-08-05T04:23:00.455Z,85.00
2022-08-05T04:25:56.414Z,83.29
2022-08-05T04:28:14.157Z,81.99
2022-08-05T04:30:41.599Z,82.92
2022-08-05T04:33:09.446Z,82.57
2022-08-05T04:36:10.860Z,83.10
2022-08-05T04:38:22.390Z,82.50
2022-08-05T04:41:06.772Z,81.63
2022-08-05T04:43:34.029Z,81.21
2022-08-05T04:46:00.898Z,79.82
2022-08-05T04:51:02.753Z,79.14
2022-08-05T04:53:33.540Z,79.06
2022-08-05T04:56:32.790Z,79.51
2022-08-05T04:58:48.948Z,76.96
2022-08-05T05:01:15.753Z,75.48
2022-08-05T05:04:02.154Z,75.26
2022-08-05T05:06:35.901Z,74.17
2022-08-05T05:09:07.401Z,73.15
2022-08-05T05:11:52.858Z,73.21
2022-08-05T05:14:31.261Z,74.29
2022-08-05T05:17:02.093Z,73.65
2022-08-05T05:19:36.466Z,72.78
2022-08-05T05:22:24.169Z,71.32
2022-08-05T05:24:57.927Z,71.67
2022-08-05T05:27:45.888Z,71.09
2022-08-05T05:30:30.542Z,73.29
2022-08-05T05:33:00.063Z,71.23
2022-08-05T05:35:31.620Z,70.02
2022-08-05T05:38:03.035Z,69.70
2022-08-05T05:40:32.134Z,69.84
2022-08-05T05:42:59.319Z,68.74
2022-08-05T05:45:25.921Z,68.29
2022-08-05T05:48:06.626Z,68.29
2022-08-05T05:50:44.042Z,67.62
2022-08-05T05:53:21.059Z,67.90
2022-08-05T05:55:51.636Z,67.21
2022-08-05T05:58:31.990Z,67.78
2022-08-05T06:01:12.264Z,67.63
2022-08-05T06:04:00.469Z,65.03
2022-08-05T06:06:28.096Z,63.38
2022-08-05T06:08:58.188Z,63.60
2022-08-05T06:11:24.717Z,64.90
2022-08-05T06:13:55.355Z,64.56
2022-08-05T06:16:31.006Z,62.88
2022-08-05T06:19:01.102Z,61.42
2022-08-05T06:21:36.065Z,61.55
2022-08-05T06:24:07.689Z,59.83
2022-08-05T06:26:37.824Z,59.26
2022-08-05T06:29:06.926Z,57.81
2022-08-05T06:31:51.932Z,56.75
2022-08-05T06:34:20.189Z,51.96
2022-08-05T06:36:57.414Z,49.52
2022-08-05T06:39:27.670Z,48.45
2022-08-05T06:41:57.375Z,46.00
2022-08-05T06:44:25.466Z,42.11
2022-08-05T06:46:52.715Z,40.86
2022-08-05T06:49:21.469Z,41.28
2022-08-05T06:52:07.624Z,43.58
2022-08-05T06:54:54.050Z,41.51
2022-08-05T06:57:57.737Z,42.60
2022-08-05T07:00:07.869Z,44.54
2022-08-05T07:02:43.819Z,42.39
2022-08-05T07:05:18.544Z,42.87
2022-08-05T07:07:48.923Z,46.06
2022-08-05T07:10:16.402Z,45.85
2022-08-05T07:13:01.932Z,46.61
2022-08-05T07:16:01.904Z,45.58
2022-08-05T07:18:31.859Z,44.41
2022-08-05T07:20:58.613Z,41.88
2022-08-05T07:23:31.412Z,42.12
2022-08-05T07:25:57.859Z,41.65
2022-08-05T07:28:25.274Z,42.02
2022-08-05T07:30:54.726Z,42.39
2022-08-05T07:33:37.233Z,45.37
2022-08-05T07:36:20.174Z,42.54
2022-08-05T07:38:48.969Z,43.87
2022-08-05T07:42:08.167Z,45.87
2022-08-05T07:44:12.129Z,44.78
2022-08-05T07:46:41.182Z,42.36
2022-08-05T07:49:14.855Z,40.83
2022-08-05T07:51:53.389Z,41.43
2022-08-05T07:54:30.333Z,40.99
2022-08-05T07:57:01.451Z,42.11
2022-08-05T07:59:41.530Z,42.51
2022-08-05T08:02:16.429Z,38.53
2022-08-05T08:04:48.566Z,40.82
2022-08-05T08:07:15.921Z,39.62
2022-08-05T08:09:43.311Z,40.38
2022-08-05T08:12:27.243Z,41.60
2022-08-05T08:14:56.723Z,41.96
2022-08-05T08:17:28.931Z,45.42
2022-08-05T08:20:42.980Z,46.54
2022-08-05T08:22:43.529Z,43.66
2022-08-05T08:25:16.232Z,42.81
2022-08-05T08:27:47.561Z,41.18
2022-08-05T08:30:29.704Z,40.93
2022-08-05T08:33:02.549Z,40.89
2022-08-05T08:35:35.240Z,38.90
2022-08-05T08:38:08.533Z,37.15
2022-08-05T08:40:39.450Z,37.71
2022-08-05T08:45:17.743Z,35.79
2022-08-05T08:45:54.505Z,35.81
2022-08-05T08:48:43.693Z,36.90
2022-08-05T08:51:22.856Z,34.46
2022-08-05T08:53:55.225Z,33.04
2022-08-05T08:56:23.619Z,33.55
2022-08-05T08:58:53.943Z,34.85
2022-08-05T09:01:21.016Z,37.09
2022-08-05T09:03:57.379Z,37.71
2022-08-05T09:06:29.509Z,36.56
2022-08-05T09:08:59.494Z,37.84
2022-08-05T09:11:53.759Z,35.71
2022-08-05T09:14:56.546Z,34.88
2022-08-05T09:17:00.411Z,34.42
2022-08-05T09:19:36.210Z,34.96
2022-08-05T09:22:30.917Z,37.17
2022-08-05T09:25:01.317Z,37.08
2022-08-05T09:28:05.496Z,36.44
2022-08-05T09:30:23.296Z,37.45
2022-08-05T09:32:50.087Z,37.68
2022-08-05T09:35:26.509Z,37.11
2022-08-05T09:38:17.953Z,37.88
2022-08-05T09:40:52.534Z,36.41
2022-08-05T09:43:40.200Z,38.40
2022-08-05T09:46:27.587Z,34.45
2022-08-05T09:49:07.887Z,35.67
2022-08-05T09:51:49.717Z,33.49
2022-08-05T09:54:29.116Z,33.18
2022-08-05T09:56:57.494Z,34.23
2022-08-05T09:59:28.070Z,35.00
2022-08-05T10:01:57.806Z,34.50
2022-08-05T10:04:35.250Z,33.46
2022-08-05T10:07:14.107Z,34.36
2022-08-05T10:10:14.197Z,35.43
2022-08-05T10:12:49.899Z,34.38
2022-08-05T10:15:27.390Z,36.63
2022-08-05T10:18:12.973Z,37.28
2022-08-05T10:20:44.360Z,34.25
2022-08-05T10:23:34.034Z,33.26
2022-08-05T10:26:07.183Z,34.23
2022-08-05T10:28:36.600Z,32.39
2022-08-05T10:32:48.312Z,32.85
2022-08-05T10:33:54.092Z,32.42
2022-08-05T10:36:23.669Z,32.50
2022-08-05T10:39:01.155Z,32.48
2022-08-05T10:41:44.874Z,31.65
2022-08-05T10:44:17.165Z,30.99
2022-08-05T10:46:50.743Z,30.67
2022-08-05T10:49:27.068Z,32.24
2022-08-05T10:52:02.686Z,32.58
2022-08-05T10:54:57.007Z,31.94
2022-08-05T10:57:32.446Z,32.82
2022-08-05T11:00:26.827Z,35.31
2022-08-05T11:03:23.228Z,34.88
2022-08-05T11:06:08.519Z,33.53
2022-08-05T11:09:10.380Z,33.68
2022-08-05T11:11:44.771Z,34.23
2022-08-05T11:17:59.229Z,29.55
2022-08-05T11:20:39.177Z,30.23
2022-08-05T11:24:29.632Z,34.62
2022-08-05T11:26:52.035Z,33.67
2022-08-05T11:29:37.177Z,31.98
2022-08-05T11:32:23.469Z,32.72
2022-08-05T11:34:55.199Z,33.59
2022-08-05T11:38:30.566Z,32.77
2022-08-05T11:41:34.480Z,35.02
2022-08-05T11:44:05.473Z,34.24
2022-08-05T11:47:09.841Z,35.00
2022-08-05T11:49:34.004Z,35.74
2022-08-05T11:52:00.906Z,35.66
2022-08-05T11:54:34.481Z,35.71
2022-08-05T11:57:24.523Z,34.82
2022-08-05T11:59:50.825Z,34.67
2022-08-05T12:02:29.845Z,34.80
2022-08-05T12:04:59.643Z,33.75
2022-08-05T12:08:03.540Z,34.10
2022-08-05T12:10:13.979Z,34.18
2022-08-05T12:12:55.370Z,32.47
2022-08-05T12:15:38.792Z,30.87
2022-08-05T12:18:10.728Z,30.73
2022-08-05T12:20:38.891Z,30.64
2022-08-05T12:23:09.930Z,30.93
2022-08-05T12:25:56.435Z,31.02
2022-08-05T12:28:37.155Z,31.99
2022-08-05T12:31:04.859Z,30.48
2022-08-05T12:33:36.678Z,32.88
2022-08-05T12:36:08.015Z,34.21
2022-08-05T12:38:40.122Z,35.33
2022-08-05T12:41:13.443Z,36.29
2022-08-05T12:44:11.679Z,35.28
2022-08-05T12:46:45.477Z,35.01
2022-08-05T12:49:19.091Z,34.36
2022-08-05T12:52:14.234Z,34.27
2022-08-05T12:54:33.145Z,33.47
2022-08-05T12:57:05.045Z,33.98
2022-08-05T13:01:57.017Z,33.77
2022-08-05T13:02:37.334Z,33.38
2022-08-05T13:05:07.204Z,33.56
2022-08-05T13:07:59.751Z,33.86
2022-08-05T13:10:20.600Z,34.08
2022-08-05T13:12:51.221Z,34.36
2022-08-05T13:15:41.294Z,32.48
2022-08-05T13:18:18.916Z,34.89
2022-08-05T13:20:47.420Z,34.38
2022-08-05T13:23:16.389Z,32.00
2022-08-05T13:25:52.412Z,32.62
2022-08-05T13:28:27.025Z,33.14
2022-08-05T13:30:53.753Z,33.28
2022-08-05T13:34:24.470Z,33.66
2022-08-05T13:36:09.216Z,33.70
2022-08-05T13:38:42.324Z,33.90
2022-08-05T13:41:11.209Z,33.86
2022-08-05T13:43:43.578Z,35.01
2022-08-05T13:46:50.556Z,33.22
2022-08-05T13:49:10.523Z,33.02
2022-08-05T13:51:40.844Z,34.26
2022-08-05T13:54:15.181Z,34.42
2022-08-05T13:56:45.093Z,33.85
2022-08-05T13:59:19.739Z,33.61
2022-08-05T14:01:57.444Z,34.05
2022-08-05T14:04:49.932Z,33.85
2022-08-05T14:07:55.584Z,34.09
2022-08-05T14:10:13.984Z,32.64
2022-08-05T14:12:48.730Z,32.08
2022-08-05T14:16:04.633Z,31.82
2022-08-05T14:18:02.698Z,33.53
2022-08-05T14:20:31.189Z,32.08
2022-08-05T14:22:58.723Z,32.29
2022-08-05T14:25:27.946Z,33.23
2022-08-05T14:27:55.518Z,32.47
2022-08-05T14:30:22.664Z,33.07
2022-08-05T14:32:52.914Z,33.61
2022-08-05T14:35:20.741Z,32.05
2022-08-05T14:37:53.595Z,32.97
2022-08-05T14:40:24.251Z,32.84
2022-08-05T14:42:51.939Z,34.31
2022-08-05T14:45:18.501Z,34.33
2022-08-05T14:48:04.270Z,33.57
2022-08-05T14:50:31.691Z,33.06
2022-08-05T14:52:59.606Z,32.66
2022-08-05T14:55:38.385Z,33.81
2022-08-05T14:58:10.912Z,33.10
2022-08-05T15:00:58.027Z,33.57
2022-08-05T15:03:33.696Z,33.09
2022-08-05T15:06:07.960Z,34.14
2022-08-05T15:08:59.292Z,34.54
2022-08-05T15:11:51.323Z,33.96
2022-08-05T15:14:34.009Z,34.02
2022-08-05T15:17:01.739Z,33.56
2022-08-05T15:19:30.726Z,34.30
2022-08-05T15:22:00.000Z,34.38
2022-08-05T15:24:27.611Z,35.10
2022-08-05T15:26:54.154Z,33.73
2022-08-05T15:29:22.801Z,33.99
2022-08-05T15:31:52.778Z,34.23
2022-08-05T15:34:32.491Z,34.07
2022-08-05T15:37:05.087Z,34.79
2022-08-05T15:40:58.278Z,33.79
2022-08-05T15:42:54.165Z,34.74
2022-08-05T15:45:07.665Z,34.60
2022-08-05T15:47:36.429Z,34.14
2022-08-05T15:50:03.907Z,34.71
2022-08-05T15:52:53.108Z,35.66
2022-08-05T15:55:19.249Z,37.59
2022-08-05T15:57:51.155Z,37.72
2022-08-05T16:00:30.476Z,37.21
2022-08-05T16:02:59.685Z,38.61
2022-08-05T16:05:28.230Z,38.08
2022-08-05T16:07:54.704Z,37.75
2022-08-05T16:10:25.536Z,37.98
2022-08-05T16:12:55.880Z,38.49
2022-08-05T16:15:23.624Z,37.46
2022-08-05T16:17:57.820Z,38.58
2022-08-05T16:20:25.116Z,37.63
2022-08-05T16:22:51.562Z,38.22
2022-08-05T16:25:18.178Z,37.03
2022-08-05T16:28:00.340Z,38.63
2022-08-05T16:30:31.784Z,38.62
2022-08-05T16:32:59.585Z,37.63
2022-08-05T16:35:28.332Z,37.69
2022-08-05T16:38:14.955Z,38.93
2022-08-05T16:40:51.739Z,39.31
2022-08-05T16:43:23.681Z,38.69
2022-08-05T16:46:04.343Z,38.91
2022-08-05T16:48:35.315Z,38.29
2022-08-05T16:51:02.331Z,39.52
2022-08-05T16:54:04.365Z,39.85
2022-08-05T16:56:22.309Z,40.08
2022-08-05T16:58:49.843Z,41.19
2022-08-05T17:01:16.420Z,41.49
2022-08-05T17:03:45.636Z,41.03
2022-08-05T17:06:13.021Z,42.05
2022-08-05T17:08:53.544Z,42.58
2022-08-05T17:11:25.091Z,43.62
2022-08-05T17:14:05.371Z,44.59
2022-08-05T17:16:36.648Z,45.24
2022-08-05T17:19:07.828Z,45.00
2022-08-05T17:21:37.800Z,46.35
2022-08-05T17:24:28.266Z,46.24
2022-08-05T17:26:55.754Z,46.24
2022-08-05T17:29:40.223Z,46.18
2022-08-05T17:32:17.116Z,44.25
2022-08-05T17:34:53.276Z,43.40
2022-08-05T17:37:39.567Z,44.20
2022-08-05T17:40:12.328Z,45.32
2022-08-05T17:42:42.874Z,46.73
2022-08-05T17:45:20.185Z,48.41
2022-08-05T17:47:53.974Z,49.91
2022-08-05T17:50:28.315Z,51.36
2022-08-05T17:52:58.760Z,53.14
2022-08-05T17:55:27.455Z,55.62
2022-08-05T17:58:05.627Z,58.31
2022-08-05T18:00:34.536Z,61.18
2022-08-05T18:03:02.089Z,64.29
2022-08-05T18:05:35.222Z,66.06
2022-08-05T18:08:02.379Z,68.49
2022-08-05T18:10:32.141Z,69.55
2022-08-05T18:13:00.102Z,70.66
2022-08-05T18:15:31.188Z,72.44
2022-08-05T18:18:05.759Z,75.08
2022-08-05T18:20:37.775Z,77.02
2022-08-05T18:23:09.172Z,79.87
2022-08-05T18:25:45.496Z,81.84
2022-08-05T18:28:16.034Z,83.40
2022-08-05T18:30:51.362Z,86.50
2022-08-05T18:33:23.130Z,89.47
2022-08-05T18:36:03.424Z,93.99
2022-08-05T18:38:30.917Z,98.58
2022-08-05T18:41:56.291Z,100.00
2022-08-05T18:43:49.155Z,100.00
2022-08-05T18:46:19.778Z,100.00
2022-08-05T18:48:52.324Z,100.00
2022-08-05T18:52:02.475Z,100.00
2022-08-05T18:54:33.470Z,100.00
2022-08-05T18:57:01.481Z,100.00
2022-08-05T18:59:43.923Z,100.00
2022-08-05T19:02:26.667Z,100.00
2022-08-05T19:05:02.532Z,100.00
2022-08-05T19:07:45.057Z,100.00
2022-08-05T19:10:12.402Z,100.00
2022-08-05T19:12:38.954Z,100.00
2022-08-05T19:15:05.994Z,100.00
2022-08-05T19:18:08.785Z,100.00
2022-08-05T19:20:36.942Z,100.00
2022-08-05T19:23:07.727Z,100.00
2022-08-05T19:25:39.026Z,100.00
2022-08-05T19:28:09.991Z,100.00
2022-08-05T19:30:36.534Z,100.00
2022-08-05T19:33:04.686Z,100.00
2022-08-05T19:35:55.938Z,100.00
2022-08-05T19:38:26.494Z,100.00
2022-08-05T19:40:53.471Z,100.00
2022-08-05T19:44:04.608Z,100.00
2022-08-05T19:46:06.451Z,100.00
2022-08-05T19:48:44.038Z,100.00
2022-08-05T19:52:06.036Z,100.00
2022-08-05T19:54:21.846Z,100.00
2022-08-05T19:56:54.105Z,100.00
2022-08-05T19:59:54.517Z,100.00
2022-08-05T20:02:07.293Z,100.00
2022-08-05T20:04:33.767Z,100.00
2022-08-05T20:07:00.190Z,100.00
2022-08-05T20:09:28.542Z,100.00
2022-08-05T20:12:15.088Z,100.00
2022-08-05T20:14:41.926Z,100.00
2022-08-05T20:17:09.930Z,100.00
2022-08-05T20:19:41.424Z,100.00
2022-08-05T20:22:09.587Z,100.00
2022-08-05T20:24:36.460Z,100.00
2022-08-05T20:27:04.760Z,100.00
2022-08-05T20:29:38.287Z,100.00
2022-08-05T20:32:06.440Z,100.00
2022-08-05T20:34:33.052Z,100.00
2022-08-05T20:37:00.888Z,99.15
2022-08-05T20:39:35.452Z,98.19
2022-08-05T20:42:04.434Z,99.24
2022-08-05T20:44:33.069Z,98.22
2022-08-05T20:47:06.590Z,97.18
2022-08-05T20:49:39.282Z,97.58
2022-08-05T20:52:07.272Z,96.48
2022-08-05T20:54:42.759Z,98.56
2022-08-05T20:57:42.072Z,98.79
2022-08-05T21:00:19.846Z,97.45
2022-08-05T21:02:57.807Z,96.59
2022-08-05T21:05:24.705Z,96.13
2022-08-05T21:07:51.960Z,96.61
2022-08-05T21:10:19.266Z,96.40
2022-08-05T21:12:57.970Z,98.69
2022-08-05T21:15:33.625Z,99.24
2022-08-05T21:18:00.634Z,99.55
2022-08-05T21:20:33.295Z,100.00
2022-08-05T21:23:00.358Z,100.00
2022-08-05T21:25:33.496Z,100.00
2022-08-05T21:28:02.782Z,100.00
2022-08-05T21:30:29.330Z,100.00
2022-08-05T21:32:55.788Z,100.00
2022-08-05T21:35:29.935Z,100.00
2022-08-05T21:38:09.203Z,100.00
2022-08-05T21:40:35.773Z,100.00
2022-08-05T21:43:02.197Z,100.00
2022-08-05T21:45:56.240Z,100.00
2022-08-05T21:48:18.646Z,99.30
2022-08-05T21:50:54.139Z,98.83
2022-08-05T21:53:21.547Z,99.50
2022-08-05T21:56:05.098Z,97.53
2022-08-05T21:58:42.022Z,97.87
2022-08-05T22:01:09.175Z,97.08
2022-08-05T22:03:52.601Z,97.68
2022-08-05T22:06:23.131Z,97.51
2022-08-05T22:09:01.774Z,96.59
2022-08-05T22:11:40.629Z,96.59
2022-08-05T22:14:34.553Z,95.39
2022-08-05T22:16:57.934Z,95.42
2022-08-05T22:20:01.750Z,95.06
2022-08-05T22:22:12.266Z,94.38
2022-08-05T22:24:59.642Z,93.04
2022-08-05T22:28:08.943Z,93.38
2022-08-05T22:30:32.490Z,100.00
2022-08-05T22:33:01.902Z,100.00
2022-08-05T22:35:31.206Z,100.00
2022-08-05T22:38:14.804Z,100.00
2022-08-05T22:40:41.748Z,100.00
2022-08-05T22:43:16.258Z,100.00
2022-08-05T22:46:08.756Z,100.00
2022-08-05T22:48:39.108Z,100.00
2022-08-05T22:51:06.782Z,100.00
2022-08-05T22:57:52.797Z,100.00
2022-08-05T23:00:49.365Z,100.00
2022-08-05T23:03:16.332Z,100.00
2022-08-05T23:05:46.114Z,100.00
2022-08-05T23:08:12.670Z,100.00
2022-08-05T23:10:41.705Z,100.00
2022-08-05T23:13:08.719Z,100.00
2022-08-05T23:15:36.477Z,100.00
2022-08-05T23:18:05.861Z,100.00
2022-08-05T23:20:40.427Z,100.00
2022-08-05T23:23:10.886Z,100.00
2022-08-05T23:25:53.251Z,100.00
2022-08-05T23:28:28.743Z,100.00
2022-08-05T23:30:56.741Z,100.00
2022-08-05T23:34:03.932Z,100.00
2022-08-05T23:36:39.821Z,100.00
2022-08-05T23:39:17.544Z,100.00
2022-08-05T23:41:59.371Z,100.00
2022-08-05T23:44:31.061Z,100.00
2022-08-05T23:46:59.970Z,100.00
2022-08-05T23:49:35.968Z,100.00
2022-08-05T23:52:21.608Z,100.00
2022-08-05T23:54:53.169Z,100.00
2022-08-05T23:57:19.714Z,100.00
